Hiltons, Virginia
Current Conditions -  °F | °C
As of 7:53 PM on Saturday 22 Nov 2014 (Local Time) from KTRI Reporting Station
Clear Clear  
Wind Chill: 37°   Ceiling: Unl
Heat Index: 37°   Visibility: 10mi
Dew Point: 25°   Wind: 0mph
Humidity: 62%   Direction: NA
Pressure: 30.25"   Gusts: NA
Location:  36.65°N, 82.47°W
Report Text: KTRI 230053Z 00000KT 10SM CLR 03/M04 A3025 RMK AO2 SLP245 T00281039
Loading
Personal Weather Stations






























Interactive Weather Map New forecast layout! Learn more

10-Day Weather Forecast

Advertisements
Track Severe Weather on mobile